VOZ799 YBBN-YBCS
Flight info
| Callsign | VOZ799 |
|---|---|
| Flight time | 2h 6m |
| Altitude | 38000 |
| Route | BIXAD Q67 GLA DCT NOLUP DCT OVRON Q67 BARIA DCT UPOLO |
| Aircraft | B738/M-SDE2E3FGHIRWXY/LB1 |
Departure
| Time | 2026-05-06 03:47 |
|---|---|
| Airport | Brisbane International Airport (YBBN) |
Arrival
| Time | 2026-05-06 05:53 |
|---|---|
| Airport | Cairns International Airport (YBCS) |
| Time | Latitude | Longitude | Altitude | Speed | Heading |
|---|---|---|---|---|---|
| 2026-05-06 03:36 | -27.38417 | 153.12143 | 17 ft | 0 kts | 275° |
| 2026-05-06 03:40 | -27.38417 | 153.12148 | 17 ft | 2 kts | 273° |
| 2026-05-06 03:40 | -27.38416 | 153.12166 | 17 ft | 2 kts | 260° |
| 2026-05-06 03:40 | -27.38411 | 153.12184 | 17 ft | 2 kts | 235° |
| 2026-05-06 03:41 | -27.38399 | 153.12196 | 17 ft | 2 kts | 197° |
| 2026-05-06 03:41 | -27.38383 | 153.12197 | 18 ft | 2 kts | 165° |
| 2026-05-06 03:41 | -27.38375 | 153.12195 | 18 ft | 1 kts | 151° |
| 2026-05-06 03:42 | -27.38387 | 153.12202 | 18 ft | 5 kts | 151° |
| 2026-05-06 03:43 | -27.38439 | 153.12232 | 17 ft | 10 kts | 153° |
| 2026-05-06 03:43 | -27.38497 | 153.12287 | 17 ft | 12 kts | 120° |
| 2026-05-06 03:43 | -27.38527 | 153.12347 | 17 ft | 14 kts | 127° |
| 2026-05-06 03:43 | -27.38607 | 153.12410 | 17 ft | 15 kts | 191° |
| 2026-05-06 03:44 | -27.38713 | 153.12353 | 17 ft | 20 kts | 207° |
| 2026-05-06 03:44 | -27.38854 | 153.12272 | 17 ft | 25 kts | 207° |
| 2026-05-06 03:44 | -27.39017 | 153.12179 | 17 ft | 27 kts | 207° |
| 2026-05-06 03:44 | -27.39184 | 153.12084 | 18 ft | 26 kts | 207° |
| 2026-05-06 03:45 | -27.39343 | 153.11993 | 17 ft | 25 kts | 207° |
| 2026-05-06 03:45 | -27.39486 | 153.11939 | 17 ft | 15 kts | 155° |
| 2026-05-06 03:45 | -27.39542 | 153.12036 | 18 ft | 15 kts | 118° |
| 2026-05-06 03:45 | -27.39589 | 153.12141 | 17 ft | 15 kts | 116° |
| 2026-05-06 03:46 | -27.39582 | 153.12222 | 19 ft | 9 kts | 32° |
| 2026-05-06 03:46 | -27.39486 | 153.12278 | 18 ft | 40 kts | 27° |
| 2026-05-06 03:46 | -27.39009 | 153.12548 | 17 ft | 112 kts | 26° |
| 2026-05-06 03:46 | -27.38131 | 153.13049 | 28 ft | 169 kts | 32° |
| 2026-05-06 03:47 | -27.37041 | 153.13683 | 654 ft | 178 kts | 31° |
| 2026-05-06 03:47 | -27.36033 | 153.14486 | 1511 ft | 181 kts | 53° |
| 2026-05-06 03:47 | -27.35142 | 153.15627 | 2067 ft | 210 kts | 52° |
| 2026-05-06 03:47 | -27.34109 | 153.16904 | 2368 ft | 235 kts | 50° |
| 2026-05-06 03:48 | -27.32975 | 153.18291 | 2851 ft | 246 kts | 50° |
| 2026-05-06 03:48 | -27.31810 | 153.19715 | 3525 ft | 249 kts | 50° |
| 2026-05-06 03:48 | -27.30635 | 153.21151 | 4270 ft | 249 kts | 49° |
| 2026-05-06 03:48 | -27.29447 | 153.22577 | 4976 ft | 252 kts | 43° |
| 2026-05-06 03:49 | -27.27895 | 153.23480 | 5637 ft | 256 kts | 12° |
| 2026-05-06 03:49 | -27.26126 | 153.23657 | 6384 ft | 256 kts | 2° |
| 2026-05-06 03:49 | -27.24291 | 153.23692 | 6810 ft | 274 kts | 0° |
| 2026-05-06 03:49 | -27.22356 | 153.23704 | 7490 ft | 281 kts | 360° |
| 2026-05-06 03:50 | -27.20397 | 153.23717 | 8338 ft | 281 kts | 359° |
| 2026-05-06 03:50 | -27.18433 | 153.23735 | 9213 ft | 283 kts | 359° |
| 2026-05-06 03:50 | -27.16460 | 153.23758 | 10039 ft | 285 kts | 358° |
| 2026-05-06 03:50 | -27.14440 | 153.23786 | 10532 ft | 299 kts | 358° |
| 2026-05-06 03:51 | -27.12270 | 153.23817 | 10702 ft | 324 kts | 358° |
| 2026-05-06 03:51 | -27.09971 | 153.23852 | 10885 ft | 345 kts | 359° |
| 2026-05-06 03:51 | -27.07459 | 153.23894 | 11026 ft | 367 kts | 359° |
| 2026-05-06 03:51 | -27.04876 | 153.23940 | 11278 ft | 382 kts | 359° |
| 2026-05-06 03:52 | -27.02194 | 153.23989 | 11746 ft | 389 kts | 359° |
| 2026-05-06 03:52 | -26.99475 | 153.24041 | 12282 ft | 393 kts | 359° |
| 2026-05-06 03:52 | -26.96735 | 153.24093 | 12923 ft | 394 kts | 359° |
| 2026-05-06 03:52 | -26.93984 | 153.24144 | 13484 ft | 397 kts | 359° |
| 2026-05-06 03:53 | -26.91207 | 153.24196 | 14022 ft | 400 kts | 359° |
| 2026-05-06 03:53 | -26.88406 | 153.24247 | 14509 ft | 403 kts | 359° |
| 2026-05-06 03:53 | -26.85601 | 153.24299 | 15039 ft | 404 kts | 358° |
| 2026-05-06 03:53 | -26.82783 | 153.24350 | 15552 ft | 406 kts | 358° |
| 2026-05-06 03:54 | -26.79954 | 153.24402 | 16057 ft | 407 kts | 358° |
| 2026-05-06 03:54 | -26.77113 | 153.24453 | 16541 ft | 409 kts | 357° |
| 2026-05-06 03:54 | -26.74260 | 153.24505 | 17018 ft | 410 kts | 357° |
| 2026-05-06 03:54 | -26.71401 | 153.24551 | 17484 ft | 412 kts | 355° |
| 2026-05-06 03:55 | -26.68589 | 153.24311 | 17919 ft | 409 kts | 347° |
| 2026-05-06 03:55 | -26.65826 | 153.23571 | 18362 ft | 407 kts | 339° |
| 2026-05-06 03:55 | -26.63116 | 153.22605 | 18745 ft | 408 kts | 339° |
| 2026-05-06 03:55 | -26.60402 | 153.21636 | 19074 ft | 411 kts | 339° |
| 2026-05-06 03:56 | -26.57658 | 153.20665 | 19395 ft | 414 kts | 339° |
| 2026-05-06 03:56 | -26.54905 | 153.19702 | 19732 ft | 416 kts | 339° |
| 2026-05-06 03:56 | -26.52167 | 153.18751 | 20076 ft | 417 kts | 339° |
| 2026-05-06 03:56 | -26.49375 | 153.17787 | 20405 ft | 420 kts | 339° |
| 2026-05-06 03:57 | -26.46578 | 153.16824 | 20717 ft | 422 kts | 339° |
| 2026-05-06 03:57 | -26.43764 | 153.15855 | 21023 ft | 424 kts | 339° |
| 2026-05-06 03:57 | -26.40932 | 153.14880 | 21330 ft | 426 kts | 339° |
| 2026-05-06 03:57 | -26.38087 | 153.13902 | 21629 ft | 428 kts | 339° |
| 2026-05-06 03:58 | -26.35272 | 153.12933 | 21924 ft | 430 kts | 339° |
| 2026-05-06 03:58 | -26.32400 | 153.11946 | 22213 ft | 432 kts | 339° |
| 2026-05-06 03:58 | -26.29547 | 153.10894 | 22476 ft | 432 kts | 335° |
| 2026-05-06 03:58 | -26.26836 | 153.09462 | 22732 ft | 430 kts | 328° |
| 2026-05-06 03:59 | -26.24355 | 153.07617 | 23021 ft | 429 kts | 321° |
| 2026-05-06 03:59 | -26.21971 | 153.05616 | 23292 ft | 430 kts | 321° |
| 2026-05-06 03:59 | -26.19621 | 153.03652 | 23528 ft | 432 kts | 321° |
| 2026-05-06 03:59 | -26.17203 | 153.01652 | 23742 ft | 434 kts | 321° |
| 2026-05-06 04:00 | -26.14770 | 152.99658 | 23989 ft | 434 kts | 321° |
| 2026-05-06 04:00 | -26.12332 | 152.97668 | 24235 ft | 434 kts | 321° |
| 2026-05-06 04:00 | -26.09923 | 152.95707 | 24452 ft | 435 kts | 321° |
| 2026-05-06 04:00 | -26.07477 | 152.93734 | 24661 ft | 435 kts | 321° |
| 2026-05-06 04:01 | -26.05016 | 152.91760 | 24876 ft | 436 kts | 321° |
| 2026-05-06 04:01 | -26.02549 | 152.89785 | 25069 ft | 437 kts | 321° |
| 2026-05-06 04:01 | -26.00078 | 152.87807 | 25270 ft | 438 kts | 321° |
| 2026-05-06 04:01 | -25.97602 | 152.85824 | 25477 ft | 438 kts | 321° |
| 2026-05-06 04:02 | -25.95122 | 152.83838 | 25676 ft | 439 kts | 321° |
| 2026-05-06 04:02 | -25.92643 | 152.81853 | 25835 ft | 440 kts | 321° |
| 2026-05-06 04:02 | -25.90153 | 152.79859 | 25986 ft | 441 kts | 321° |
| 2026-05-06 04:02 | -25.87670 | 152.77872 | 26297 ft | 438 kts | 321° |
| 2026-05-06 04:03 | -25.85206 | 152.75901 | 26659 ft | 435 kts | 320° |
| 2026-05-06 04:03 | -25.82749 | 152.73938 | 26967 ft | 434 kts | 320° |
| 2026-05-06 04:03 | -25.80302 | 152.71982 | 27225 ft | 433 kts | 320° |
| 2026-05-06 04:03 | -25.77859 | 152.70031 | 27531 ft | 432 kts | 320° |
| 2026-05-06 04:04 | -25.75425 | 152.68087 | 27860 ft | 430 kts | 320° |
| 2026-05-06 04:04 | -25.72995 | 152.66149 | 28207 ft | 428 kts | 320° |
| 2026-05-06 04:04 | -25.70579 | 152.64222 | 28540 ft | 427 kts | 320° |
| 2026-05-06 04:04 | -25.68175 | 152.62305 | 28830 ft | 426 kts | 320° |
| 2026-05-06 04:05 | -25.65802 | 152.60414 | 29159 ft | 425 kts | 320° |
| 2026-05-06 04:05 | -25.63404 | 152.58505 | 29535 ft | 423 kts | 319° |
| 2026-05-06 04:05 | -25.61023 | 152.56610 | 29901 ft | 421 kts | 319° |
| 2026-05-06 04:05 | -25.58638 | 152.54712 | 30199 ft | 420 kts | 319° |
| 2026-05-06 04:06 | -25.56266 | 152.52825 | 30458 ft | 420 kts | 319° |
| 2026-05-06 04:06 | -25.53892 | 152.50938 | 30742 ft | 419 kts | 319° |
| 2026-05-06 04:06 | -25.51528 | 152.49060 | 31033 ft | 417 kts | 319° |
| 2026-05-06 04:06 | -25.49167 | 152.47186 | 31310 ft | 417 kts | 319° |
| 2026-05-06 04:07 | -25.46813 | 152.45318 | 31581 ft | 416 kts | 319° |
| 2026-05-06 04:07 | -25.44462 | 152.43453 | 31873 ft | 415 kts | 319° |
| 2026-05-06 04:07 | -25.42123 | 152.41599 | 32176 ft | 413 kts | 318° |
| 2026-05-06 04:07 | -25.39789 | 152.39750 | 32449 ft | 412 kts | 318° |
| 2026-05-06 04:08 | -25.37453 | 152.37899 | 32716 ft | 412 kts | 318° |
| 2026-05-06 04:08 | -25.35127 | 152.36057 | 32986 ft | 411 kts | 318° |
| 2026-05-06 04:08 | -25.32835 | 152.34244 | 33272 ft | 410 kts | 318° |
| 2026-05-06 04:08 | -25.30516 | 152.32410 | 33556 ft | 409 kts | 318° |
| 2026-05-06 04:09 | -25.28200 | 152.30579 | 33829 ft | 408 kts | 318° |
| 2026-05-06 04:09 | -25.25890 | 152.28753 | 34095 ft | 407 kts | 317° |
| 2026-05-06 04:09 | -25.23593 | 152.26939 | 34323 ft | 406 kts | 317° |
| 2026-05-06 04:09 | -25.21300 | 152.25129 | 34580 ft | 404 kts | 317° |
| 2026-05-06 04:10 | -25.19012 | 152.23324 | 34835 ft | 403 kts | 317° |
| 2026-05-06 04:10 | -25.16737 | 152.21529 | 35055 ft | 402 kts | 317° |
| 2026-05-06 04:10 | -25.14464 | 152.19737 | 35274 ft | 401 kts | 317° |
| 2026-05-06 04:10 | -25.12198 | 152.17951 | 35515 ft | 400 kts | 317° |
| 2026-05-06 04:11 | -25.09940 | 152.16172 | 35730 ft | 399 kts | 317° |
| 2026-05-06 04:11 | -25.07683 | 152.14394 | 35942 ft | 398 kts | 317° |
| 2026-05-06 04:11 | -25.05436 | 152.12626 | 36182 ft | 396 kts | 317° |
| 2026-05-06 04:11 | -25.03194 | 152.10863 | 36414 ft | 395 kts | 317° |
| 2026-05-06 04:12 | -25.00960 | 152.09111 | 36624 ft | 394 kts | 317° |
| 2026-05-06 04:12 | -24.98725 | 152.07361 | 36820 ft | 393 kts | 317° |
| 2026-05-06 04:12 | -24.96495 | 152.05616 | 37010 ft | 393 kts | 317° |
| 2026-05-06 04:12 | -24.94295 | 152.03894 | 37153 ft | 393 kts | 317° |
| 2026-05-06 04:13 | -24.92058 | 152.02143 | 37285 ft | 393 kts | 317° |
| 2026-05-06 04:13 | -24.89821 | 152.00393 | 37432 ft | 393 kts | 317° |
| 2026-05-06 04:13 | -24.87589 | 151.98648 | 37534 ft | 394 kts | 317° |
| 2026-05-06 04:13 | -24.85351 | 151.96899 | 37637 ft | 394 kts | 317° |
| 2026-05-06 04:14 | -24.83111 | 151.95148 | 37746 ft | 395 kts | 317° |
| 2026-05-06 04:14 | -24.80872 | 151.93400 | 37841 ft | 395 kts | 317° |
| 2026-05-06 04:14 | -24.78630 | 151.91651 | 37975 ft | 394 kts | 317° |
| 2026-05-06 04:14 | -24.76394 | 151.89906 | 38010 ft | 395 kts | 317° |
| 2026-05-06 04:15 | -24.71927 | 151.86422 | 38015 ft | 397 kts | 318° |
| 2026-05-06 04:15 | -24.67413 | 151.82905 | 38020 ft | 398 kts | 318° |
| 2026-05-06 04:16 | -24.62886 | 151.79382 | 38021 ft | 399 kts | 318° |
| 2026-05-06 04:16 | -24.58352 | 151.75857 | 38019 ft | 399 kts | 318° |
| 2026-05-06 04:17 | -24.53813 | 151.72331 | 38015 ft | 400 kts | 318° |
| 2026-05-06 04:17 | -24.49265 | 151.68801 | 38016 ft | 400 kts | 318° |
| 2026-05-06 04:18 | -24.44735 | 151.65289 | 38012 ft | 401 kts | 318° |
| 2026-05-06 04:18 | -24.40182 | 151.61761 | 38014 ft | 400 kts | 318° |
| 2026-05-06 04:19 | -24.35632 | 151.58239 | 38020 ft | 400 kts | 318° |
| 2026-05-06 04:19 | -24.31087 | 151.54724 | 38017 ft | 400 kts | 318° |
| 2026-05-06 04:20 | -24.26541 | 151.51211 | 38004 ft | 400 kts | 318° |
| 2026-05-06 04:20 | -24.22020 | 151.47721 | 38007 ft | 400 kts | 318° |
| 2026-05-06 04:21 | -24.17474 | 151.44214 | 38006 ft | 399 kts | 318° |
| 2026-05-06 04:21 | -24.12922 | 151.40706 | 38008 ft | 400 kts | 318° |
| 2026-05-06 04:22 | -24.08362 | 151.37194 | 38021 ft | 401 kts | 318° |
| 2026-05-06 04:23 | -24.01509 | 151.31923 | 38018 ft | 401 kts | 318° |
| 2026-05-06 04:23 | -23.96972 | 151.28437 | 38019 ft | 401 kts | 318° |
| 2026-05-06 04:24 | -23.92409 | 151.24934 | 38017 ft | 400 kts | 318° |
| 2026-05-06 04:24 | -23.87850 | 151.21437 | 38023 ft | 400 kts | 319° |
| 2026-05-06 04:25 | -23.83140 | 151.18136 | 38026 ft | 404 kts | 322° |
| 2026-05-06 04:25 | -23.78307 | 151.15000 | 38021 ft | 404 kts | 322° |
| 2026-05-06 04:26 | -23.73459 | 151.11863 | 38017 ft | 405 kts | 322° |
| 2026-05-06 04:26 | -23.68623 | 151.08720 | 38021 ft | 405 kts | 322° |
| 2026-05-06 04:27 | -23.63807 | 151.05582 | 38006 ft | 405 kts | 322° |
| 2026-05-06 04:27 | -23.58967 | 151.02429 | 38017 ft | 405 kts | 322° |
| 2026-05-06 04:28 | -23.54126 | 150.99276 | 38001 ft | 405 kts | 322° |
| 2026-05-06 04:28 | -23.50105 | 150.96661 | 38005 ft | 404 kts | 322° |
| 2026-05-06 04:29 | -23.45262 | 150.93513 | 38011 ft | 404 kts | 322° |
| 2026-05-06 04:29 | -23.40430 | 150.90374 | 38008 ft | 404 kts | 322° |
| 2026-05-06 04:30 | -23.35591 | 150.87233 | 38007 ft | 404 kts | 322° |
| 2026-05-06 04:30 | -23.30777 | 150.84111 | 38008 ft | 405 kts | 322° |
| 2026-05-06 04:31 | -23.25938 | 150.80976 | 38002 ft | 405 kts | 322° |
| 2026-05-06 04:31 | -23.21097 | 150.77843 | 38003 ft | 404 kts | 322° |
| 2026-05-06 04:32 | -23.16260 | 150.74716 | 38012 ft | 404 kts | 322° |
| 2026-05-06 04:32 | -23.11443 | 150.71602 | 38004 ft | 404 kts | 322° |
| 2026-05-06 04:33 | -23.06607 | 150.68480 | 38008 ft | 404 kts | 322° |
| 2026-05-06 04:33 | -23.01760 | 150.65353 | 38005 ft | 404 kts | 322° |
| 2026-05-06 04:34 | -22.96922 | 150.62235 | 38006 ft | 404 kts | 322° |
| 2026-05-06 04:34 | -22.92085 | 150.59120 | 38033 ft | 404 kts | 322° |
| 2026-05-06 04:35 | -22.87240 | 150.56002 | 38003 ft | 405 kts | 322° |
| 2026-05-06 04:35 | -22.82390 | 150.52884 | 37995 ft | 404 kts | 322° |
| 2026-05-06 04:36 | -22.77586 | 150.49799 | 38002 ft | 404 kts | 322° |
| 2026-05-06 04:36 | -22.72754 | 150.46697 | 37999 ft | 404 kts | 323° |
| 2026-05-06 04:37 | -22.67916 | 150.43594 | 37995 ft | 404 kts | 323° |
| 2026-05-06 04:37 | -22.63070 | 150.40489 | 38005 ft | 404 kts | 323° |
| 2026-05-06 04:38 | -22.58224 | 150.37386 | 37994 ft | 404 kts | 323° |
| 2026-05-06 04:38 | -22.53415 | 150.34310 | 37984 ft | 405 kts | 323° |
| 2026-05-06 04:39 | -22.48568 | 150.31211 | 37988 ft | 404 kts | 323° |
| 2026-05-06 04:39 | -22.43725 | 150.28119 | 37994 ft | 403 kts | 323° |
| 2026-05-06 04:40 | -22.38881 | 150.25027 | 37990 ft | 403 kts | 323° |
| 2026-05-06 04:40 | -22.34044 | 150.21943 | 37993 ft | 403 kts | 323° |
| 2026-05-06 04:41 | -22.29244 | 150.18885 | 37992 ft | 403 kts | 323° |
| 2026-05-06 04:41 | -22.24406 | 150.15805 | 37991 ft | 403 kts | 323° |
| 2026-05-06 04:42 | -22.19568 | 150.12727 | 37991 ft | 404 kts | 323° |
| 2026-05-06 04:42 | -22.14719 | 150.09645 | 37988 ft | 404 kts | 323° |
| 2026-05-06 04:43 | -22.09871 | 150.06566 | 37976 ft | 405 kts | 323° |
| 2026-05-06 04:43 | -22.05016 | 150.03486 | 37988 ft | 404 kts | 323° |
| 2026-05-06 04:44 | -22.00198 | 150.00431 | 38017 ft | 405 kts | 322° |
| 2026-05-06 04:44 | -21.95332 | 149.97348 | 37991 ft | 405 kts | 322° |
| 2026-05-06 04:45 | -21.90461 | 149.94264 | 37988 ft | 406 kts | 322° |
| 2026-05-06 04:45 | -21.85592 | 149.91184 | 37984 ft | 406 kts | 322° |
| 2026-05-06 04:46 | -21.80709 | 149.88098 | 37983 ft | 406 kts | 322° |
| 2026-05-06 04:46 | -21.75855 | 149.85032 | 37983 ft | 407 kts | 322° |
| 2026-05-06 04:47 | -21.70976 | 149.81952 | 37983 ft | 407 kts | 322° |
| 2026-05-06 04:47 | -21.66086 | 149.78868 | 37984 ft | 407 kts | 322° |
| 2026-05-06 04:48 | -21.61199 | 149.75776 | 37981 ft | 407 kts | 322° |
| 2026-05-06 04:48 | -21.56331 | 149.72651 | 37982 ft | 407 kts | 322° |
| 2026-05-06 04:49 | -21.51466 | 149.69524 | 37983 ft | 408 kts | 322° |
| 2026-05-06 04:49 | -21.46622 | 149.66416 | 37997 ft | 408 kts | 322° |
| 2026-05-06 04:50 | -21.41744 | 149.63292 | 37988 ft | 409 kts | 322° |
| 2026-05-06 04:50 | -21.36854 | 149.60163 | 37973 ft | 409 kts | 322° |
| 2026-05-06 04:51 | -21.31959 | 149.57034 | 37981 ft | 409 kts | 322° |
| 2026-05-06 04:51 | -21.27050 | 149.53898 | 37976 ft | 410 kts | 322° |
| 2026-05-06 04:52 | -21.22176 | 149.50787 | 37975 ft | 410 kts | 322° |
| 2026-05-06 04:52 | -21.17257 | 149.47650 | 37989 ft | 411 kts | 322° |
| 2026-05-06 04:53 | -21.12341 | 149.44517 | 37973 ft | 411 kts | 323° |
| 2026-05-06 04:53 | -21.07426 | 149.41387 | 37977 ft | 411 kts | 323° |
| 2026-05-06 04:54 | -21.02503 | 149.38254 | 37983 ft | 412 kts | 323° |
| 2026-05-06 04:54 | -20.97576 | 149.35121 | 37974 ft | 412 kts | 323° |
| 2026-05-06 04:55 | -20.92645 | 149.31988 | 37977 ft | 412 kts | 323° |
| 2026-05-06 04:55 | -20.87732 | 149.28869 | 37970 ft | 413 kts | 323° |
| 2026-05-06 04:56 | -20.82781 | 149.25728 | 37974 ft | 413 kts | 323° |
| 2026-05-06 04:56 | -20.77828 | 149.22589 | 37971 ft | 414 kts | 323° |
| 2026-05-06 04:57 | -20.72865 | 149.19446 | 37974 ft | 414 kts | 323° |
| 2026-05-06 04:57 | -20.67929 | 149.16321 | 37974 ft | 415 kts | 323° |
| 2026-05-06 04:58 | -20.62960 | 149.13180 | 37968 ft | 415 kts | 323° |
| 2026-05-06 04:58 | -20.57985 | 149.10035 | 37980 ft | 415 kts | 323° |
| 2026-05-06 04:59 | -20.53006 | 149.06891 | 37983 ft | 416 kts | 323° |
| 2026-05-06 04:59 | -20.48024 | 149.03746 | 37987 ft | 416 kts | 323° |
| 2026-05-06 05:00 | -20.43034 | 149.00600 | 37992 ft | 416 kts | 323° |
| 2026-05-06 05:00 | -20.38080 | 148.97478 | 37995 ft | 416 kts | 323° |
| 2026-05-06 05:01 | -20.33255 | 148.94116 | 37994 ft | 411 kts | 316° |
| 2026-05-06 05:01 | -20.28789 | 148.90310 | 37986 ft | 411 kts | 316° |
| 2026-05-06 05:02 | -20.24319 | 148.86498 | 37987 ft | 411 kts | 316° |
| 2026-05-06 05:02 | -20.19839 | 148.82697 | 37978 ft | 411 kts | 316° |
| 2026-05-06 05:03 | -20.15350 | 148.78902 | 37972 ft | 412 kts | 317° |
| 2026-05-06 05:03 | -20.10858 | 148.75109 | 37968 ft | 412 kts | 317° |
| 2026-05-06 05:04 | -20.06365 | 148.71320 | 37967 ft | 412 kts | 317° |
| 2026-05-06 05:04 | -20.01861 | 148.67524 | 37967 ft | 413 kts | 317° |
| 2026-05-06 05:05 | -19.97385 | 148.63753 | 37951 ft | 413 kts | 317° |
| 2026-05-06 05:05 | -19.92870 | 148.59954 | 37963 ft | 413 kts | 317° |
| 2026-05-06 05:06 | -19.88357 | 148.56159 | 37961 ft | 414 kts | 317° |
| 2026-05-06 05:06 | -19.83837 | 148.52359 | 37958 ft | 414 kts | 317° |
| 2026-05-06 05:07 | -19.79335 | 148.48579 | 37964 ft | 414 kts | 317° |
| 2026-05-06 05:07 | -19.74797 | 148.44772 | 37958 ft | 415 kts | 317° |
| 2026-05-06 05:08 | -19.70254 | 148.40962 | 37951 ft | 415 kts | 317° |
| 2026-05-06 05:08 | -19.65722 | 148.37165 | 37961 ft | 415 kts | 317° |
| 2026-05-06 05:09 | -19.61180 | 148.33362 | 37956 ft | 416 kts | 317° |
| 2026-05-06 05:09 | -19.56638 | 148.29563 | 37963 ft | 416 kts | 317° |
| 2026-05-06 05:10 | -19.52092 | 148.25762 | 37963 ft | 416 kts | 317° |
| 2026-05-06 05:10 | -19.47539 | 148.21958 | 37959 ft | 417 kts | 317° |
| 2026-05-06 05:11 | -19.42972 | 148.18146 | 37958 ft | 417 kts | 317° |
| 2026-05-06 05:11 | -19.38440 | 148.14365 | 37953 ft | 417 kts | 317° |
| 2026-05-06 05:12 | -19.34620 | 148.11181 | 37955 ft | 417 kts | 317° |
| 2026-05-06 05:12 | -19.30082 | 148.07401 | 37956 ft | 417 kts | 317° |
| 2026-05-06 05:13 | -19.25516 | 148.03600 | 37954 ft | 417 kts | 317° |
| 2026-05-06 05:13 | -19.20952 | 147.99803 | 37956 ft | 417 kts | 317° |
| 2026-05-06 05:14 | -19.16385 | 147.96007 | 37957 ft | 417 kts | 318° |
| 2026-05-06 05:14 | -19.11817 | 147.92213 | 37953 ft | 418 kts | 318° |
| 2026-05-06 05:15 | -19.07239 | 147.88413 | 37954 ft | 418 kts | 318° |
| 2026-05-06 05:15 | -19.02656 | 147.84611 | 37952 ft | 418 kts | 318° |
| 2026-05-06 05:16 | -18.98074 | 147.80814 | 37954 ft | 419 kts | 318° |
| 2026-05-06 05:16 | -18.93482 | 147.77011 | 37949 ft | 419 kts | 318° |
| 2026-05-06 05:17 | -18.88892 | 147.73212 | 37955 ft | 419 kts | 318° |
| 2026-05-06 05:17 | -18.84323 | 147.69433 | 37953 ft | 419 kts | 318° |
| 2026-05-06 05:18 | -18.79725 | 147.65633 | 37953 ft | 420 kts | 318° |
| 2026-05-06 05:18 | -18.75119 | 147.61829 | 37952 ft | 420 kts | 318° |
| 2026-05-06 05:19 | -18.70510 | 147.58025 | 37954 ft | 420 kts | 318° |
| 2026-05-06 05:19 | -18.65899 | 147.54222 | 37951 ft | 420 kts | 318° |
| 2026-05-06 05:20 | -18.61291 | 147.50425 | 37954 ft | 420 kts | 318° |
| 2026-05-06 05:20 | -18.56681 | 147.46628 | 37950 ft | 421 kts | 318° |
| 2026-05-06 05:21 | -18.52095 | 147.42855 | 37951 ft | 421 kts | 318° |
| 2026-05-06 05:21 | -18.47474 | 147.39054 | 37947 ft | 421 kts | 318° |
| 2026-05-06 05:22 | -18.42847 | 147.35252 | 37953 ft | 421 kts | 318° |
| 2026-05-06 05:22 | -18.38191 | 147.31428 | 37952 ft | 422 kts | 318° |
| 2026-05-06 05:23 | -18.33559 | 147.27627 | 37952 ft | 422 kts | 319° |
| 2026-05-06 05:23 | -18.26606 | 147.21926 | 37951 ft | 422 kts | 319° |
| 2026-05-06 05:24 | -18.21999 | 147.18151 | 37944 ft | 423 kts | 319° |
| 2026-05-06 05:24 | -18.17322 | 147.14323 | 37950 ft | 423 kts | 319° |
| 2026-05-06 05:25 | -18.12705 | 147.10546 | 37946 ft | 423 kts | 319° |
| 2026-05-06 05:25 | -18.08053 | 147.06742 | 37945 ft | 424 kts | 319° |
| 2026-05-06 05:26 | -18.03387 | 147.02930 | 37948 ft | 424 kts | 319° |
| 2026-05-06 05:26 | -17.98727 | 146.99125 | 37946 ft | 424 kts | 319° |
| 2026-05-06 05:27 | -17.94061 | 146.95318 | 37953 ft | 425 kts | 319° |
| 2026-05-06 05:27 | -17.89388 | 146.91508 | 37947 ft | 425 kts | 319° |
| 2026-05-06 05:28 | -17.84683 | 146.87674 | 37946 ft | 425 kts | 319° |
| 2026-05-06 05:28 | -17.80006 | 146.83865 | 37944 ft | 426 kts | 319° |
| 2026-05-06 05:29 | -17.75310 | 146.80046 | 37946 ft | 426 kts | 319° |
| 2026-05-06 05:29 | -17.70625 | 146.76241 | 37946 ft | 426 kts | 319° |
| 2026-05-06 05:30 | -17.65929 | 146.72427 | 37943 ft | 427 kts | 319° |
| 2026-05-06 05:30 | -17.61267 | 146.68644 | 37948 ft | 427 kts | 319° |
| 2026-05-06 05:31 | -17.56592 | 146.64853 | 37738 ft | 421 kts | 319° |
| 2026-05-06 05:31 | -17.54272 | 146.62971 | 37330 ft | 423 kts | 319° |
| 2026-05-06 05:31 | -17.51942 | 146.61082 | 36923 ft | 421 kts | 319° |
| 2026-05-06 05:32 | -17.49638 | 146.59216 | 36358 ft | 418 kts | 319° |
| 2026-05-06 05:32 | -17.47331 | 146.57348 | 35778 ft | 416 kts | 319° |
| 2026-05-06 05:32 | -17.45048 | 146.55499 | 35220 ft | 413 kts | 319° |
| 2026-05-06 05:32 | -17.42805 | 146.53684 | 34671 ft | 411 kts | 319° |
| 2026-05-06 05:33 | -17.40548 | 146.51858 | 34126 ft | 409 kts | 319° |
| 2026-05-06 05:33 | -17.38300 | 146.50039 | 33535 ft | 407 kts | 319° |
| 2026-05-06 05:33 | -17.36063 | 146.48230 | 32942 ft | 406 kts | 319° |
| 2026-05-06 05:33 | -17.33830 | 146.46424 | 32350 ft | 404 kts | 319° |
| 2026-05-06 05:34 | -17.31598 | 146.44620 | 31768 ft | 403 kts | 319° |
| 2026-05-06 05:34 | -17.29385 | 146.42831 | 31206 ft | 402 kts | 319° |
| 2026-05-06 05:34 | -17.27173 | 146.41044 | 30650 ft | 401 kts | 319° |
| 2026-05-06 05:34 | -17.24963 | 146.39259 | 30109 ft | 401 kts | 319° |
| 2026-05-06 05:35 | -17.22758 | 146.37479 | 29491 ft | 400 kts | 319° |
| 2026-05-06 05:35 | -17.20554 | 146.35700 | 28861 ft | 400 kts | 319° |
| 2026-05-06 05:35 | -17.18354 | 146.33928 | 28246 ft | 400 kts | 319° |
| 2026-05-06 05:35 | -17.16150 | 146.32153 | 27645 ft | 399 kts | 319° |
| 2026-05-06 05:36 | -17.13946 | 146.30379 | 27058 ft | 399 kts | 319° |
| 2026-05-06 05:36 | -17.11752 | 146.28613 | 26489 ft | 398 kts | 320° |
| 2026-05-06 05:36 | -17.09558 | 146.26848 | 25921 ft | 397 kts | 320° |
| 2026-05-06 05:36 | -17.07366 | 146.25084 | 25366 ft | 397 kts | 320° |
| 2026-05-06 05:37 | -17.05173 | 146.23320 | 24822 ft | 396 kts | 320° |
| 2026-05-06 05:37 | -17.02986 | 146.21561 | 24283 ft | 396 kts | 320° |
| 2026-05-06 05:37 | -17.00808 | 146.19811 | 23767 ft | 395 kts | 320° |
| 2026-05-06 05:37 | -16.98626 | 146.18056 | 23191 ft | 395 kts | 320° |
| 2026-05-06 05:38 | -16.96451 | 146.16309 | 22582 ft | 394 kts | 321° |
| 2026-05-06 05:38 | -16.94305 | 146.14585 | 21985 ft | 393 kts | 321° |
| 2026-05-06 05:38 | -16.92137 | 146.12844 | 21402 ft | 392 kts | 321° |
| 2026-05-06 05:38 | -16.90001 | 146.11130 | 20804 ft | 383 kts | 321° |
| 2026-05-06 05:39 | -16.87910 | 146.09453 | 20232 ft | 374 kts | 321° |
| 2026-05-06 05:39 | -16.85860 | 146.07808 | 19669 ft | 366 kts | 321° |
| 2026-05-06 05:39 | -16.83861 | 146.06205 | 19117 ft | 358 kts | 321° |
| 2026-05-06 05:39 | -16.81900 | 146.04632 | 18581 ft | 352 kts | 321° |
| 2026-05-06 05:40 | -16.79961 | 146.03111 | 18021 ft | 346 kts | 322° |
| 2026-05-06 05:40 | -16.78687 | 146.02126 | 17616 ft | 342 kts | 322° |
| 2026-05-06 05:40 | -16.76587 | 146.00509 | 16956 ft | 337 kts | 322° |
| 2026-05-06 05:40 | -16.74809 | 145.99145 | 16399 ft | 332 kts | 322° |
| 2026-05-06 05:41 | -16.72958 | 145.97727 | 15822 ft | 328 kts | 322° |
| 2026-05-06 05:41 | -16.71150 | 145.96341 | 15265 ft | 324 kts | 322° |
| 2026-05-06 05:41 | -16.69317 | 145.94934 | 14698 ft | 321 kts | 322° |
| 2026-05-06 05:41 | -16.67550 | 145.93576 | 14160 ft | 318 kts | 322° |
| 2026-05-06 05:42 | -16.65776 | 145.92210 | 13612 ft | 315 kts | 322° |
| 2026-05-06 05:42 | -16.64022 | 145.90858 | 13002 ft | 313 kts | 322° |
| 2026-05-06 05:42 | -16.62282 | 145.89516 | 12418 ft | 310 kts | 322° |
| 2026-05-06 05:42 | -16.60551 | 145.88183 | 11834 ft | 308 kts | 322° |
| 2026-05-06 05:43 | -16.58833 | 145.86860 | 11270 ft | 305 kts | 322° |
| 2026-05-06 05:43 | -16.57131 | 145.85550 | 10711 ft | 303 kts | 322° |
| 2026-05-06 05:43 | -16.55438 | 145.84248 | 10168 ft | 301 kts | 322° |
| 2026-05-06 05:43 | -16.53751 | 145.82953 | 9598 ft | 300 kts | 322° |
| 2026-05-06 05:44 | -16.52074 | 145.81667 | 8995 ft | 298 kts | 323° |
| 2026-05-06 05:44 | -16.50416 | 145.80378 | 8435 ft | 296 kts | 319° |
| 2026-05-06 05:44 | -16.49181 | 145.78723 | 8151 ft | 288 kts | 293° |
| 2026-05-06 05:44 | -16.48787 | 145.76738 | 7905 ft | 283 kts | 267° |
| 2026-05-06 05:45 | -16.49263 | 145.74834 | 7671 ft | 278 kts | 240° |
| 2026-05-06 05:45 | -16.50556 | 145.73327 | 7426 ft | 273 kts | 212° |
| 2026-05-06 05:45 | -16.52270 | 145.72531 | 7247 ft | 268 kts | 198° |
| 2026-05-06 05:45 | -16.54038 | 145.71932 | 6963 ft | 266 kts | 197° |
| 2026-05-06 05:46 | -16.55802 | 145.71344 | 6614 ft | 266 kts | 196° |
| 2026-05-06 05:46 | -16.57557 | 145.70752 | 6178 ft | 267 kts | 195° |
| 2026-05-06 05:46 | -16.59345 | 145.70135 | 5425 ft | 270 kts | 196° |
| 2026-05-06 05:46 | -16.61090 | 145.69522 | 5018 ft | 257 kts | 196° |
| 2026-05-06 05:47 | -16.62756 | 145.68930 | 4701 ft | 248 kts | 196° |
| 2026-05-06 05:47 | -16.64338 | 145.68364 | 4415 ft | 239 kts | 196° |
| 2026-05-06 05:47 | -16.65884 | 145.67795 | 4163 ft | 233 kts | 197° |
| 2026-05-06 05:47 | -16.67399 | 145.67230 | 3915 ft | 229 kts | 197° |
| 2026-05-06 05:48 | -16.68909 | 145.66847 | 3666 ft | 219 kts | 174° |
| 2026-05-06 05:48 | -16.69883 | 145.67056 | 3543 ft | 214 kts | 160° |
| 2026-05-06 05:48 | -16.71761 | 145.67657 | 3147 ft | 207 kts | 158° |
| 2026-05-06 05:48 | -16.72641 | 145.68021 | 2975 ft | 202 kts | 155° |
| 2026-05-06 05:49 | -16.74299 | 145.68780 | 2627 ft | 189 kts | 154° |
| 2026-05-06 05:49 | -16.75093 | 145.69143 | 2467 ft | 179 kts | 154° |
| 2026-05-06 05:49 | -16.76517 | 145.69789 | 2165 ft | 157 kts | 154° |
| 2026-05-06 05:49 | -16.77181 | 145.70091 | 2032 ft | 153 kts | 155° |
| 2026-05-06 05:50 | -16.78136 | 145.70525 | 1826 ft | 150 kts | 155° |
| 2026-05-06 05:50 | -16.79085 | 145.70956 | 1646 ft | 148 kts | 154° |
| 2026-05-06 05:50 | -16.80030 | 145.71384 | 1413 ft | 148 kts | 154° |
| 2026-05-06 05:50 | -16.80982 | 145.71817 | 1228 ft | 147 kts | 154° |
| 2026-05-06 05:51 | -16.81919 | 145.72243 | 1052 ft | 148 kts | 154° |
| 2026-05-06 05:51 | -16.82874 | 145.72677 | 847 ft | 151 kts | 153° |
| 2026-05-06 05:51 | -16.83795 | 145.73095 | 641 ft | 149 kts | 154° |
| 2026-05-06 05:51 | -16.84741 | 145.73515 | 445 ft | 145 kts | 154° |
| 2026-05-06 05:52 | -16.85663 | 145.73939 | 250 ft | 148 kts | 154° |
| 2026-05-06 05:52 | -16.86619 | 145.74370 | 82 ft | 148 kts | 154° |
| 2026-05-06 05:52 | -16.87497 | 145.74774 | 17 ft | 130 kts | 155° |
| 2026-05-06 05:52 | -16.88144 | 145.75062 | 16 ft | 70 kts | 156° |
| 2026-05-06 05:53 | -16.88439 | 145.75196 | 17 ft | 37 kts | 157° |
| 2026-05-06 05:53 | -16.88636 | 145.75286 | 18 ft | 27 kts | 155° |
| 2026-05-06 05:53 | -16.88670 | 145.75425 | 18 ft | 18 kts | 66° |
| 2026-05-06 05:53 | -16.88568 | 145.75452 | 16 ft | 17 kts | 335° |
| 2026-05-06 05:54 | -16.88461 | 145.75402 | 16 ft | 17 kts | 336° |
| 2026-05-06 05:54 | -16.88352 | 145.75350 | 16 ft | 19 kts | 335° |
| 2026-05-06 05:54 | -16.88223 | 145.75287 | 15 ft | 22 kts | 336° |
| 2026-05-06 05:54 | -16.88102 | 145.75232 | 15 ft | 18 kts | 336° |
| 2026-05-06 05:55 | -16.88007 | 145.75189 | 15 ft | 10 kts | 336° |
| 2026-05-06 05:55 | -16.87950 | 145.75164 | 15 ft | 10 kts | 338° |
| 2026-05-06 05:55 | -16.87881 | 145.75133 | 16 ft | 12 kts | 336° |
| 2026-05-06 05:55 | -16.87786 | 145.75090 | 16 ft | 18 kts | 336° |
| 2026-05-06 05:56 | -16.87689 | 145.75053 | 16 ft | 13 kts | 0° |
| 2026-05-06 05:56 | -16.87658 | 145.75122 | 15 ft | 9 kts | 115° |
| 2026-05-06 05:56 | -16.87690 | 145.75149 | 15 ft | 6 kts | 133° |
| 2026-05-06 05:56 | -16.87688 | 145.75190 | 15 ft | 6 kts | 63° |
| 2026-05-06 05:57 | -16.87671 | 145.75227 | 15 ft | 4 kts | 67° |
| 2026-05-06 05:57 | -16.87664 | 145.75245 | 18 ft | 1 kts | 67° |